Time;durP1;ratioP1;P1;durP2;ratioP2;P2;SDS_P1;SDS_P2;PMS_P1;PMS_P2;Temp;Humidity;BMP_temperature;BMP_pressure;BME280_temperature;BME280_humidity;BME280_pressure;Samples;Min_cycle;Max_cycle;Signal;HPM_P1;HPM_P2
2022/11/06 00:00:16;;;;;;;114.95;48.90;;;;;;;16.58;85.82;100708.41;5088896;28;20111;-75
2022/11/06 00:02:42;;;;;;;108.55;46.90;;;;;;;16.56;86.16;100702.31;5088883;28;20031;-74
2022/11/06 00:07:51;;;;;;;84.40;43.83;;;;;;;16.49;86.59;100696.63;5089042;28;20081;-73
2022/11/06 00:10:17;;;;;;;100.55;46.95;;;;;;;16.36;86.95;100670.94;5088843;28;20463;-75
2022/11/06 00:12:43;;;;;;;202.38;55.83;;;;;;;16.45;87.17;100683.56;5090867;28;20110;-75
2022/11/06 00:15:09;;;;;;;88.68;48.25;;;;;;;16.47;87.09;100678.81;5092739;28;20029;-74
2022/11/06 00:17:35;;;;;;;148.05;52.33;;;;;;;16.44;87.44;100687.28;5056684;28;20040;-74
2022/11/06 00:20:00;;;;;;;132.57;49.90;;;;;;;16.44;87.53;100698.13;5088916;28;20031;-74
2022/11/06 00:22:26;;;;;;;143.30;52.03;;;;;;;16.40;87.58;100697.59;5088973;28;20032;-73
2022/11/06 00:24:51;;;;;;;93.40;47.88;;;;;;;16.33;87.39;100675.66;5088789;28;20089;-74
2022/11/06 00:27:17;;;;;;;162.75;53.47;;;;;;;16.33;87.17;100675.66;5036372;28;20093;-75
2022/11/06 00:29:42;;;;;;;107.55;50.60;;;;;;;16.44;86.81;100704.41;5088964;28;20024;-73
2022/11/06 00:32:08;;;;;;;88.88;49.05;;;;;;;16.41;87.00;100698.47;5090495;28;20020;-73
2022/11/06 00:34:33;;;;;;;89.40;47.65;;;;;;;16.26;86.60;100668.34;5092747;28;20058;-75
2022/11/06 00:36:59;;;;;;;85.93;47.17;;;;;;;16.37;86.34;100694.34;5092837;28;20031;-74
2022/11/06 00:39:25;;;;;;;76.85;44.92;;;;;;;16.34;86.30;100692.81;5092780;28;20411;-73
2022/11/06 00:41:50;;;;;;;82.47;45.50;;;;;;;16.30;86.58;100696.84;5092841;28;20034;-73
2022/11/06 00:44:15;;;;;;;116.38;48.75;;;;;;;16.29;87.16;100706.88;5092386;28;20486;-74
2022/11/06 00:46:41;;;;;;;153.13;46.08;;;;;;;16.16;87.41;100687.44;5092300;28;20016;-74
2022/11/06 00:49:06;;;;;;;82.05;43.00;;;;;;;16.28;87.47;100699.75;5092780;28;20035;-74
2022/11/06 00:51:40;;;;;;;154.30;45.17;;;;;;;16.23;87.62;100693.94;5093639;28;20078;-73
2022/11/06 00:54:09;;;;;;;205.30;48.58;;;;;;;16.23;87.54;100696.66;5092038;28;20120;-72
2022/11/06 00:56:35;;;;;;;122.78;43.50;;;;;;;16.17;87.45;100683.72;5091985;28;20020;-75
2022/11/06 00:59:03;;;;;;;88.90;44.97;;;;;;;16.26;87.29;100712.63;5091735;28;20050;-73
2022/11/06 01:01:31;;;;;;;102.43;46.97;;;;;;;16.17;87.39;100701.88;5091825;28;20028;-75
2022/11/06 01:04:00;;;;;;;82.93;43.67;;;;;;;16.28;87.08;100709.75;5091866;28;20062;-73
2022/11/06 01:06:28;;;;;;;82.85;42.92;;;;;;;16.27;86.77;100700.75;5091833;28;20035;-74
2022/11/06 01:08:55;;;;;;;78.75;41.50;;;;;;;16.21;86.44;100697.81;5091710;28;20103;-74
2022/11/06 01:11:24;;;;;;;78.32;40.08;;;;;;;16.20;86.31;100691.56;5073702;28;20024;-75
2022/11/06 01:13:53;;;;;;;88.15;43.53;;;;;;;16.15;86.58;100693.00;5091899;28;20024;-75
2022/11/06 01:16:20;;;;;;;81.75;42.70;;;;;;;16.12;86.71;100691.47;5091819;28;20020;-74
2022/11/06 01:18:46;;;;;;;91.03;41.47;;;;;;;16.10;86.95;100689.94;5091755;28;20063;-74
2022/11/06 01:21:17;;;;;;;85.53;39.63;;;;;;;16.06;87.09;100689.41;5091880;28;20060;-73
2022/11/06 01:23:43;;;;;;;75.28;39.05;;;;;;;16.08;87.35;100681.13;5092798;28;20032;-74
2022/11/06 01:26:10;;;;;;;72.03;37.60;;;;;;;16.08;88.08;100686.53;5095902;28;20021;-73
2022/11/06 01:28:38;;;;;;;57.40;32.80;;;;;;;16.06;88.37;100681.25;5096090;28;20036;-74
2022/11/06 01:31:09;;;;;;;60.75;33.45;;;;;;;16.05;88.91;100679.56;5092530;28;20415;-73
2022/11/06 01:33:34;;;;;;;64.47;32.00;;;;;;;16.09;88.47;100680.94;5091490;28;20055;-73
2022/11/06 01:36:00;;;;;;;69.40;32.03;;;;;;;16.09;88.85;100683.66;5091186;28;20024;-73
2022/11/06 01:38:26;;;;;;;56.03;29.25;;;;;;;16.07;89.00;100690.25;5091836;28;20064;-74
2022/11/06 01:40:52;;;;;;;63.53;29.08;;;;;;;16.10;88.62;100681.78;5091579;28;20406;-74
2022/11/06 01:43:22;;;;;;;64.57;29.15;;;;;;;16.00;88.35;100652.06;5090704;28;20032;-73
2022/11/06 01:45:53;;;;;;;63.75;30.33;;;;;;;16.13;88.24;100676.91;5091286;28;20487;-75
2022/11/06 01:48:23;;;;;;;52.05;26.58;;;;;;;16.11;87.90;100681.66;5091610;28;20032;-73
2022/11/06 01:50:54;;;;;;;79.93;28.15;;;;;;;15.99;87.64;100655.75;5091295;28;20491;-75
2022/11/06 01:53:20;;;;;;;74.28;27.90;;;;;;;16.02;87.41;100663.63;5091187;28;20071;-73
2022/11/06 01:55:51;;;;;;;52.60;27.02;;;;;;;16.06;87.26;100686.69;5072798;28;20405;-74
2022/11/06 01:58:19;;;;;;;47.88;26.30;;;;;;;16.01;87.09;100680.91;5091350;28;20118;-74
2022/11/06 02:00:45;;;;;;;66.32;23.88;;;;;;;16.04;86.67;100683.28;5091340;28;20063;-74
2022/11/06 02:03:12;;;;;;;44.47;25.23;;;;;;;16.02;86.49;100670.91;5091040;28;20028;-74
2022/11/06 02:05:38;;;;;;;66.35;22.98;;;;;;;15.93;85.98;100678.09;5091383;28;20052;-74
2022/11/06 02:08:05;;;;;;;72.03;26.67;;;;;;;15.93;86.31;100671.84;5090572;28;20034;-74
2022/11/06 02:10:31;;;;;;;72.07;24.88;;;;;;;15.77;86.22;100648.16;5090451;28;20032;-73
2022/11/06 02:13:08;;;;;;;53.75;24.50;;;;;;;15.94;86.27;100674.38;5091212;28;20414;-74
2022/11/06 02:16:05;;;;;;;80.72;25.30;;;;;;;15.95;85.82;100681.53;5091540;28;20088;-73
2022/11/06 02:19:09;;;;;;;48.25;22.60;;;;;;;15.94;85.33;100687.94;4988736;28;20108;-75
2022/11/06 02:21:43;;;;;;;53.53;21.20;;;;;;;15.85;84.92;100680.75;4931330;29;20031;-74
2022/11/06 02:24:33;;;;;;;51.05;21.17;;;;;;;15.69;84.46;100656.22;4930701;29;20043;-74
2022/11/06 02:27:09;;;;;;;31.45;18.42;;;;;;;15.78;84.22;100671.53;4930793;29;20483;-74
2022/11/06 02:29:43;;;;;;;65.25;21.38;;;;;;;15.77;84.09;100681.56;4930408;29;20052;-74
2022/11/06 02:32:15;;;;;;;61.22;22.50;;;;;;;15.73;84.41;100682.00;4930330;29;20031;-74
2022/11/06 02:34:43;;;;;;;52.15;21.33;;;;;;;15.71;84.63;100681.34;4930065;29;20063;-75
2022/11/06 02:37:16;;;;;;;46.17;20.73;;;;;;;15.73;84.59;100677.44;4931746;29;20043;-74
2022/11/06 02:39:45;;;;;;;47.65;22.70;;;;;;;15.73;84.64;100677.44;4932115;29;20035;-73
2022/11/06 02:42:14;;;;;;;52.85;21.30;;;;;;;15.57;84.97;100649.31;4932385;29;20114;-74
2022/11/06 02:44:42;;;;;;;53.90;22.48;;;;;;;15.74;84.71;100676.44;4930261;29;20106;-73
2022/11/06 02:47:09;;;;;;;73.68;27.52;;;;;;;15.71;84.71;100689.47;4930128;29;20027;-74
2022/11/06 02:49:48;;;;;;;93.78;26.35;;;;;;;15.72;85.57;100685.72;4929988;29;20598;-74
2022/11/06 02:52:28;;;;;;;68.43;27.40;;;;;;;15.75;85.46;100686.28;4930001;29;20091;-74
2022/11/06 02:54:58;;;;;;;129.15;30.85;;;;;;;15.76;85.56;100690.69;4972251;28;20483;-75
2022/11/06 02:57:27;;;;;;;74.88;28.75;;;;;;;15.71;85.61;100690.31;5089902;28;20085;-73
2022/11/06 03:00:01;;;;;;;139.68;34.53;;;;;;;15.69;86.15;100692.31;5089383;28;20402;-74
2022/11/06 03:02:34;;;;;;;136.48;31.20;;;;;;;15.74;86.29;100691.88;5089340;28;20024;-74
2022/11/06 03:05:03;;;;;;;;;;;;;;;15.73;85.98;100688.28;5089947;28;20028;-74
2022/11/06 03:07:56;;;;;;;72.32;27.73;;;;;;;15.74;86.01;100705.44;5089578;28;20003;-74
2022/11/06 03:10:28;;;;;;;66.63;29.13;;;;;;;15.74;86.08;100700.84;5089570;28;20038;-73
2022/11/06 03:13:10;;;;;;;70.15;30.52;;;;;;;15.76;85.63;100689.84;5089214;28;20028;-73
2022/11/06 03:15:38;;;;;;;;;;;;;;;15.78;85.99;100690.53;5089915;28;20056;-74
2022/11/06 03:18:18;;;;;;;62.33;27.52;;;;;;;15.72;85.95;100686.59;5089251;28;19912;-74
2022/11/06 03:21:25;;;;;;;67.68;29.48;;;;;;;15.82;86.12;100696.50;5089149;28;20056;-74
2022/11/06 03:23:57;;;;;;;50.22;28.55;;;;;;;15.86;86.67;100687.91;4987540;28;20040;-74
2022/11/06 03:26:47;;;;;;;56.85;31.42;;;;;;;15.76;87.42;100681.69;4987621;28;20033;-75
2022/11/06 03:29:20;;;;;;;81.25;35.28;;;;;;;15.67;88.32;100677.22;4929378;29;20091;-74
2022/11/06 03:31:58;;;;;;;70.35;35.30;;;;;;;15.87;88.30;100692.28;4929040;29;20044;-74
2022/11/06 03:34:30;;;;;;;60.72;35.50;;;;;;;15.67;88.69;100669.09;4928927;29;20122;-74
2022/11/06 03:37:09;;;;;;;64.35;35.15;;;;;;;15.93;88.39;100710.66;4929066;29;20032;-74
2022/11/06 03:39:41;;;;;;;61.83;34.13;;;;;;;15.84;88.62;100695.31;4929610;29;20040;-74
2022/11/06 03:42:17;;;;;;;72.40;35.22;;;;;;;15.99;89.12;100701.88;4929345;29;20042;-73
2022/11/06 03:44:47;;;;;;;51.35;33.30;;;;;;;16.11;89.13;100708.78;4929512;29;20134;-73
2022/11/06 03:47:21;;;;;;;68.10;35.40;;;;;;;16.20;89.22;100709.69;4930805;29;20074;-73
2022/11/06 03:49:56;;;;;;;65.43;35.03;;;;;;;16.21;89.79;100711.38;4935122;29;20503;-74
2022/11/06 03:52:29;;;;;;;58.05;31.90;;;;;;;16.31;90.47;100717.56;4934135;29;20031;-74
2022/11/06 03:55:04;;;;;;;61.85;34.42;;;;;;;16.42;91.03;100708.31;4929635;29;20469;-74
2022/11/06 03:57:41;;;;;;;65.13;34.30;;;;;;;16.56;93.40;100714.03;4929029;29;20035;-73
2022/11/06 04:00:08;;;;;;;60.63;34.00;;;;;;;16.64;94.19;100705.06;4959001;28;20050;-74
2022/11/06 04:02:38;;;;;;;59.65;29.80;;;;;;;16.54;95.32;100669.00;5006334;28;20080;-73
2022/11/06 04:05:11;;;;;;;61.08;31.52;;;;;;;16.82;96.16;100705.81;5009371;28;20041;-74
2022/11/06 04:13:55;;;;;;;58.65;29.05;;;;;;;16.98;96.89;100708.63;5092170;28;20023;-73
2022/11/06 04:15:59;;;;;;;52.42;28.38;;;;;;;17.00;98.61;100684.84;5092956;28;20137;-74
2022/11/06 04:18:24;;;;;;;52.17;26.20;;;;;;;17.03;98.50;100689.13;5092803;28;20191;-74
2022/11/06 04:27:18;;;;;;;52.53;25.95;;;;;;;17.02;98.64;100707.28;5092635;28;20038;-75
2022/11/06 04:29:52;;;;;;;55.75;27.83;;;;;;;17.08;98.55;100698.47;5092824;28;20028;-74
2022/11/06 04:32:31;;;;;;;69.80;28.77;;;;;;;17.16;98.70;100701.19;5092185;28;20028;-73
2022/11/06 04:35:13;;;;;;;55.58;24.17;;;;;;;17.19;98.37;100700.00;5056087;28;20657;-73
2022/11/06 04:37:52;;;;;;;58.47;26.98;;;;;;;17.20;98.26;100689.00;5092064;28;20028;-74
2022/11/06 04:40:46;;;;;;;50.63;22.98;;;;;;;17.24;98.37;100703.97;5092273;28;20039;-74
2022/11/06 04:43:22;;;;;;;46.78;22.63;;;;;;;17.18;98.64;100696.47;4990012;28;20038;-74
2022/11/06 04:45:52;;;;;;;52.20;22.95;;;;;;;17.20;99.17;100697.16;4990007;28;20586;-74
2022/11/06 04:48:18;;;;;;;58.83;23.90;;;;;;;17.24;99.33;100703.97;4990180;28;20046;-74
2022/11/06 04:50:50;;;;;;;57.58;21.42;;;;;;;17.12;99.54;100697.13;4973726;28;20509;-74
2022/11/06 04:53:16;;;;;;;58.85;24.17;;;;;;;17.07;100.00;100707.63;4973651;28;20038;-73
2022/11/06 04:55:49;;;;;;;48.75;24.27;;;;;;;16.97;100.00;100701.47;4989903;28;20057;-75
2022/11/06 04:58:14;;;;;;;65.97;25.08;;;;;;;17.03;100.00;100716.28;4990724;28;20018;-75
2022/11/06 05:00:44;;;;;;;52.63;25.05;;;;;;;17.02;100.00;100707.28;4977866;28;20073;-74
2022/11/06 05:03:10;;;;;;;61.20;26.83;;;;;;;16.83;100.00;100686.66;4995768;28;20030;-73
2022/11/06 05:05:35;;;;;;;55.25;24.05;;;;;;;16.95;100.00;100713.53;4992339;28;20034;-75
2022/11/06 05:08:01;;;;;;;60.17;26.88;;;;;;;16.89;100.00;100720.47;4989967;28;20082;-75
2022/11/06 05:10:27;;;;;;;53.47;26.92;;;;;;;17.02;100.00;100715.44;4973513;28;20113;-74
2022/11/06 05:12:52;;;;;;;46.17;24.92;;;;;;;17.08;100.00;100725.66;4989351;28;20062;-74
2022/11/06 05:15:18;;;;;;;57.45;27.45;;;;;;;17.00;100.00;100714.72;4989822;28;20174;-73
2022/11/06 05:17:43;;;;;;;60.42;25.67;;;;;;;17.19;98.43;100732.63;4988771;28;20033;-73
2022/11/06 05:20:09;;;;;;;57.97;27.20;;;;;;;17.29;97.71;100727.91;5040486;28;20523;-73
2022/11/06 05:22:59;;;;;;;76.22;28.63;;;;;;;17.39;97.58;100739.50;5091671;28;20445;-73
2022/11/06 05:25:29;;;;;;;63.50;27.85;;;;;;;17.41;97.70;100738.31;5091593;28;20028;-74
2022/11/06 05:27:55;;;;;;;59.03;26.02;;;;;;;17.37;98.35;100717.91;5091476;28;20149;-73
2022/11/06 05:30:21;;;;;;;54.30;25.70;;;;;;;17.47;98.84;100735.94;5091376;28;20050;-74
2022/11/06 05:32:47;;;;;;;53.88;25.92;;;;;;;17.59;98.29;100737.34;5091289;28;20024;-73
2022/11/06 05:35:13;;;;;;;54.83;25.52;;;;;;;17.57;97.90;100728.53;5054996;28;20469;-73
2022/11/06 05:37:39;;;;;;;50.50;23.50;;;;;;;17.59;95.42;100746.38;5091330;28;20020;-73
2022/11/06 05:40:05;;;;;;;60.15;22.45;;;;;;;17.49;92.00;100723.06;5091053;28;20028;-74
2022/11/06 05:42:30;;;;;;;45.45;21.65;;;;;;;17.62;92.01;100740.59;5090998;28;20026;-74
2022/11/06 05:44:56;;;;;;;62.10;24.23;;;;;;;17.73;92.11;100751.19;5090990;28;20031;-73
2022/11/06 05:47:21;;;;;;;52.15;22.73;;;;;;;17.69;92.03;100740.78;5088041;28;20039;-73
2022/11/06 05:49:46;;;;;;;60.55;20.98;;;;;;;17.76;91.55;100759.00;5072711;28;20039;-75
2022/11/06 05:52:12;;;;;;;54.22;21.02;;;;;;;17.77;91.96;100768.84;5090510;28;20024;-73
2022/11/06 05:54:37;;;;;;;57.58;23.75;;;;;;;17.83;93.59;100759.16;5090561;28;20031;-75
2022/11/06 05:57:03;;;;;;;51.15;21.85;;;;;;;17.82;94.37;100758.34;5090683;28;20032;-75
2022/11/06 05:59:28;;;;;;;75.13;23.92;;;;;;;17.68;94.35;100739.06;5090839;28;20036;-74
2022/11/06 06:01:53;;;;;;;44.97;20.70;;;;;;;17.83;94.48;100775.47;5090998;28;20024;-75
2022/11/06 06:04:19;;;;;;;60.45;21.33;;;;;;;17.49;95.55;100750.25;5072560;28;20028;-74
2022/11/06 06:06:44;;;;;;;57.58;22.67;;;;;;;17.60;96.96;100774.44;5090541;28;20378;-75
2022/11/06 06:09:10;;;;;;;56.13;22.90;;;;;;;17.47;96.68;100752.25;5091760;28;20402;-74
2022/11/06 06:11:35;;;;;;;45.40;23.15;;;;;;;17.61;96.47;100784.31;5104442;28;20142;-74
2022/11/06 06:14:01;;;;;;;56.78;26.80;;;;;;;17.54;97.11;100788.66;5096872;28;20020;-75
2022/11/06 06:16:26;;;;;;;52.90;24.23;;;;;;;17.59;97.23;100786.31;5093827;28;20491;-74
2022/11/06 06:18:52;;;;;;;59.50;26.23;;;;;;;17.65;96.59;100778.34;5090352;28;20059;-75
2022/11/06 06:21:17;;;;;;;64.32;24.30;;;;;;;17.76;95.44;100774.47;5090492;28;20042;-76
2022/11/06 06:23:43;;;;;;;56.70;23.70;;;;;;;17.84;94.69;100786.22;5069178;28;20028;-75
2022/11/06 06:26:08;;;;;;;48.42;23.50;;;;;;;17.92;94.02;100779.91;5069397;28;20017;-74
2022/11/06 06:28:34;;;;;;;53.03;22.23;;;;;;;17.94;93.48;100786.06;5069728;28;20470;-76
2022/11/06 06:31:04;;;;;;;59.97;25.45;;;;;;;17.68;93.83;100766.28;5086950;28;20023;-76
2022/11/06 06:33:30;;;;;;;77.07;24.70;;;;;;;17.63;94.75;100774.09;5089764;28;20048;-75
2022/11/06 06:35:55;;;;;;;56.83;23.58;;;;;;;17.78;95.38;100794.19;5089800;28;20039;-77
2022/11/06 06:38:21;;;;;;;60.20;24.38;;;;;;;17.69;95.31;100784.31;5087798;28;20475;-75
2022/11/06 06:40:46;;;;;;;67.28;25.08;;;;;;;17.82;95.66;100790.13;5070289;28;20029;-76
2022/11/06 06:43:12;;;;;;;53.53;23.27;;;;;;;17.72;95.58;100781.25;5082649;28;20043;-74
2022/11/06 06:45:37;;;;;;;63.63;23.63;;;;;;;17.87;94.77;100798.63;5089461;28;20028;-75
2022/11/06 06:48:04;;;;;;;93.22;24.85;;;;;;;17.79;94.27;100774.13;5089079;28;20028;-75
2022/11/06 06:50:30;;;;;;;62.42;25.05;;;;;;;17.91;94.13;100803.59;5089455;28;20032;-75
2022/11/06 06:52:57;;;;;;;55.55;24.77;;;;;;;17.83;93.77;100802.69;5089842;28;20051;-76
2022/11/06 06:55:22;;;;;;;53.00;23.52;;;;;;;17.94;94.31;100811.41;5089719;28;20056;-76
2022/11/06 06:57:53;;;;;;;59.10;24.33;;;;;;;17.76;94.10;100791.66;5089578;28;20423;-75
2022/11/06 07:00:19;;;;;;;62.42;24.52;;;;;;;17.78;94.43;100795.06;5089470;28;20016;-74
2022/11/06 07:02:45;;;;;;;55.22;22.90;;;;;;;17.91;94.73;100813.63;5053383;28;20248;-77
2022/11/06 07:05:10;;;;;;;49.95;22.55;;;;;;;17.95;94.17;100798.63;5089395;28;20036;-75
2022/11/06 07:07:35;;;;;;;53.55;24.15;;;;;;;17.89;94.09;100796.59;5089074;28;20028;-76
2022/11/06 07:10:01;;;;;;;52.90;22.77;;;;;;;17.93;93.86;100814.28;5089907;28;20024;-74
2022/11/06 07:12:26;;;;;;;69.70;23.58;;;;;;;17.87;93.65;100796.75;5089129;28;20506;-76
2022/11/06 07:14:52;;;;;;;77.72;25.35;;;;;;;17.87;93.07;100809.50;5089869;28;20036;-76
2022/11/06 07:17:17;;;;;;;54.10;22.92;;;;;;;17.82;93.13;100803.72;5089096;28;20034;-77
2022/11/06 07:19:43;;;;;;;72.68;23.85;;;;;;;17.94;93.30;100835.06;5090049;28;20422;-75
2022/11/06 07:22:08;;;;;;;86.53;24.52;;;;;;;17.90;93.20;100811.91;5096566;28;20028;-75
2022/11/06 07:24:33;;;;;;;72.40;22.17;;;;;;;17.92;93.25;100823.47;5096819;28;20530;-76
2022/11/06 07:26:59;;;;;;;69.22;22.90;;;;;;;18.03;93.79;100842.22;5091759;28;20020;-76
2022/11/06 07:29:24;;;;;;;60.47;22.42;;;;;;;17.85;93.57;100812.41;5089491;28;20028;-77
2022/11/06 07:31:50;;;;;;;62.90;22.65;;;;;;;18.08;93.78;100845.28;5089473;28;20036;-77
2022/11/06 07:34:15;;;;;;;84.90;23.45;;;;;;;18.11;93.32;100838.63;5070200;28;20078;-77
2022/11/06 07:36:41;;;;;;;116.80;23.25;;;;;;;17.98;93.20;100817.34;5089217;28;20410;-77
2022/11/06 07:39:06;;;;;;;230.07;30.83;;;;;;;18.20;93.06;100835.75;5088940;28;20036;-77
2022/11/06 07:41:31;;;;;;;65.45;25.05;;;;;;;18.25;92.30;100852.47;5088879;28;20028;-76
2022/11/06 07:43:57;;;;;;;60.08;23.55;;;;;;;18.31;91.62;100845.47;5089683;28;20036;-77
2022/11/06 07:46:22;;;;;;;57.83;22.67;;;;;;;18.32;90.89;100847.16;5089442;28;20024;-78
2022/11/06 07:48:48;;;;;;;92.97;24.45;;;;;;;18.34;90.71;100834.25;5070849;28;20040;-75
2022/11/06 07:51:14;;;;;;;91.38;22.20;;;;;;;18.38;90.51;100841.03;5089549;28;20069;-77
2022/11/06 07:53:40;;;;;;;55.05;19.55;;;;;;;18.32;90.19;100848.00;5089015;28;20036;-77
2022/11/06 07:56:07;;;;;;;76.07;23.67;;;;;;;18.30;90.43;100844.63;5089467;28;20074;-77
2022/11/06 07:58:33;;;;;;;106.85;22.92;;;;;;;18.38;90.43;100844.63;5090420;28;20042;-76
2022/11/06 08:00:59;;;;;;;67.82;21.00;;;;;;;18.29;90.21;100833.88;5089145;28;20028;-76
2022/11/06 08:03:25;;;;;;;111.13;25.00;;;;;;;18.39;90.44;100856.38;5088965;28;20032;-76
2022/11/06 08:05:51;;;;;;;78.35;21.42;;;;;;;18.41;90.75;100829.78;5089111;28;20036;-76
2022/11/06 08:08:16;;;;;;;58.22;21.05;;;;;;;18.57;90.80;100858.94;5089202;28;20038;-76
2022/11/06 08:10:42;;;;;;;54.47;19.70;;;;;;;18.42;90.57;100837.81;5089246;28;20402;-75
2022/11/06 08:13:10;;;;;;;80.32;22.88;;;;;;;18.48;90.11;100833.56;5088545;28;20032;-76
2022/11/06 08:15:39;;;;;;;110.13;22.65;;;;;;;18.73;88.92;100861.66;5088850;28;20028;-77
2022/11/06 08:18:06;;;;;;;95.38;24.23;;;;;;;18.82;88.59;100866.94;5088536;28;20035;-77
2022/11/06 08:20:32;;;;;;;58.00;20.02;;;;;;;18.86;88.34;100873.75;5088487;28;20021;-76
2022/11/06 08:23:03;;;;;;;68.22;19.30;;;;;;;18.91;87.76;100862.31;5088370;28;20078;-76
2022/11/06 08:25:30;;;;;;;52.97;19.17;;;;;;;18.99;87.54;100867.75;5088389;28;20020;-76
2022/11/06 08:27:56;;;;;;;69.65;20.13;;;;;;;19.08;86.60;100861.25;5070416;28;20058;-74
2022/11/06 08:30:22;;;;;;;196.52;26.85;;;;;;;18.97;86.25;100853.47;5091311;28;20103;-75
2022/11/06 08:32:48;;;;;;;140.35;23.75;;;;;;;19.09;84.96;100868.41;5097276;28;20032;-76
2022/11/06 08:35:14;;;;;;;68.65;17.67;;;;;;;18.98;85.63;100877.84;5098950;28;20135;-74
2022/11/06 08:37:39;;;;;;;60.90;21.85;;;;;;;18.86;85.54;100857.41;5090642;28;20058;-75
2022/11/06 08:40:06;;;;;;;68.18;19.15;;;;;;;19.01;85.63;100866.59;5088257;28;20024;-76
2022/11/06 08:42:31;;;;;;;54.03;18.17;;;;;;;18.92;85.18;100850.41;5088054;28;20107;-77
2022/11/06 08:44:56;;;;;;;110.50;21.33;;;;;;;19.17;84.63;100873.88;5088450;28;20132;-77
2022/11/06 08:47:22;;;;;;;63.88;19.25;;;;;;;19.21;84.37;100872.47;5069103;28;20051;-76
2022/11/06 08:49:47;;;;;;;51.65;16.95;;;;;;;19.31;84.21;100872.28;5088539;28;20036;-75
2022/11/06 08:52:13;;;;;;;55.22;18.13;;;;;;;19.17;84.67;100860.25;5088640;28;20021;-77
2022/11/06 08:54:38;;;;;;;52.20;20.45;;;;;;;19.13;84.88;100877.97;5091854;28;20032;-79
2022/11/06 08:57:04;;;;;;;166.40;25.17;;;;;;;19.10;85.42;100875.59;5092680;28;20107;-79
2022/11/06 08:59:29;;;;;;;75.40;20.60;;;;;;;19.01;85.72;100882.94;5092999;28;20028;-79
2022/11/06 09:01:59;;;;;;;72.43;20.45;;;;;;;19.09;85.51;100867.56;5093069;28;20024;-78
2022/11/06 09:04:25;;;;;;;73.18;18.42;;;;;;;19.10;85.18;100874.72;5092841;28;20032;-77
2022/11/06 09:06:50;;;;;;;59.40;18.88;;;;;;;19.07;84.39;100880.53;5092105;28;20940;-79
2022/11/06 09:09:16;;;;;;;54.33;18.63;;;;;;;18.93;84.75;100882.06;5073789;28;20578;-78
2022/11/06 09:11:41;;;;;;;63.47;19.85;;;;;;;18.98;84.89;100882.44;5092089;28;20475;-77
2022/11/06 09:14:07;;;;;;;46.58;16.95;;;;;;;19.13;85.12;100893.47;5091798;28;20031;-76
2022/11/06 09:16:32;;;;;;;49.65;18.00;;;;;;;19.20;85.17;100887.16;5091595;28;20486;-75
2022/11/06 09:18:58;;;;;;;59.92;17.40;;;;;;;19.13;84.58;100868.94;5091360;28;20411;-75
2022/11/06 09:21:23;;;;;;;103.45;19.67;;;;;;;19.22;84.13;100879.66;5091426;28;20398;-74
2022/11/06 09:23:49;;;;;;;64.28;18.10;;;;;;;19.17;83.75;100876.59;5091561;28;20461;-74
2022/11/06 09:26:15;;;;;;;92.00;18.13;;;;;;;19.17;84.38;100887.50;5092028;28;20017;-73
2022/11/06 09:28:41;;;;;;;76.95;17.92;;;;;;;19.29;84.33;100877.94;5091719;28;20036;-73
2022/11/06 09:31:07;;;;;;;86.75;19.10;;;;;;;19.23;83.61;100877.78;5091606;28;20460;-78
2022/11/06 09:33:33;;;;;;;112.97;21.40;;;;;;;19.47;83.57;100885.91;5074069;28;20131;-75
2022/11/06 09:36:02;;;;;;;92.18;20.33;;;;;;;19.51;82.61;100885.38;5091760;28;20028;-73
2022/11/06 09:38:27;;;;;;;69.45;18.08;;;;;;;19.56;81.91;100873.94;5091521;28;20036;-75
2022/11/06 09:41:18;;;;;;;102.53;20.17;;;;;;;19.43;82.29;100882.69;5096834;28;20089;-74
2022/11/06 09:44:23;;;;;;;65.40;19.25;;;;;;;19.29;82.38;100883.38;5106901;28;20305;-78
2022/11/06 09:46:49;;;;;;;82.90;18.17;;;;;;;19.28;82.03;100873.50;4997704;28;20450;-76
2022/11/06 09:49:23;;;;;;;59.33;16.83;;;;;;;19.29;81.75;100875.22;4990248;28;20084;-77
2022/11/06 09:51:51;;;;;;;144.00;22.98;;;;;;;19.24;81.58;100880.31;4989066;28;20571;-77
2022/11/06 09:54:43;;;;;;;134.95;22.08;;;;;;;19.28;81.25;100876.22;4989092;28;20057;-76
2022/11/06 09:57:17;;;;;;;63.88;16.92;;;;;;;19.17;81.72;100873.03;4930610;29;20065;-78
2022/11/06 09:59:44;;;;;;;67.78;17.63;;;;;;;19.05;82.52;100863.50;4931146;29;20040;-77
2022/11/06 10:02:46;;;;;;;64.93;17.63;;;;;;;19.22;83.02;100886.97;4930787;29;20044;-76
2022/11/06 10:05:12;;;;;;;210.23;24.15;;;;;;;19.27;82.50;100881.84;4930670;29;20043;-76
2022/11/06 10:07:40;;;;;;;60.30;17.77;;;;;;;19.25;81.56;100881.16;4930516;29;20043;-77
2022/11/06 10:10:14;;;;;;;60.05;16.75;;;;;;;19.27;81.18;100876.38;4930664;29;20031;-77
2022/11/06 10:12:39;;;;;;;121.60;23.50;;;;;;;19.17;81.10;100878.47;4930578;29;20032;-76
2022/11/06 10:15:23;;;;;;;66.88;17.08;;;;;;;19.30;80.90;100879.63;4930419;29;20560;-75
2022/11/06 10:18:00;;;;;;;63.83;19.50;;;;;;;19.29;81.08;100877.06;4932029;29;20225;-77
2022/11/06 10:20:33;;;;;;;51.03;17.40;;;;;;;19.28;81.30;100873.50;4930302;29;20131;-76
2022/11/06 10:23:01;;;;;;;;;;;;;;;19.18;81.55;100875.56;4964527;28;20536;-77
2022/11/06 10:25:43;;;;;;;48.63;16.02;;;;;;;19.14;81.80;100867.91;5004064;28;19923;-77
2022/11/06 10:28:31;;;;;;;;;;;;;;;19.12;81.57;100873.53;5006300;28;20444;-77
2022/11/06 10:31:14;;;;;;;57.67;17.50;;;;;;;19.13;81.05;100867.06;4948102;29;19919;-76
2022/11/06 10:34:01;;;;;;;97.57;36.58;;;;;;;19.12;81.01;100862.63;4958413;28;20081;-77
2022/11/06 10:36:41;;;;;;;133.02;22.40;;;;;;;19.09;81.34;100864.84;4993793;28;20045;-76
2022/11/06 10:39:14;;;;;;;47.60;17.05;;;;;;;18.94;81.11;100846.47;4992615;28;20100;-79
2022/11/06 10:41:45;;;;;;;47.75;17.95;;;;;;;18.88;81.71;100839.00;5001236;28;20041;-77
2022/11/06 10:44:20;;;;;;;70.90;18.90;;;;;;;18.98;81.67;100857.91;4992386;28;20066;-78
2022/11/06 10:46:51;;;;;;;79.38;20.75;;;;;;;18.91;81.88;100855.00;5008308;28;20105;-77
2022/11/06 10:49:54;;;;;;;57.40;18.40;;;;;;;18.89;82.54;100850.75;4989035;28;20840;-75
2022/11/06 10:52:46;;;;;;;61.55;18.73;;;;;;;18.93;82.74;100852.09;4903524;29;20028;-76
2022/11/06 10:55:30;;;;;;;;;;;;;;;18.90;82.62;100852.44;4910361;29;20059;-75
2022/11/06 10:58:02;;;;;;;71.13;16.95;;;;;;;18.74;83.00;100844.31;4896314;29;20973;-74
2022/11/06 11:00:27;;;;;;;45.63;16.02;;;;;;;18.73;82.95;100850.78;4910081;29;20490;-76
2022/11/06 11:02:58;;;;;;;64.47;17.15;;;;;;;18.65;83.05;100854.38;4909444;29;20127;-75
2022/11/06 11:05:26;;;;;;;83.97;20.00;;;;;;;18.59;83.26;100855.03;4910095;29;20605;-74
2022/11/06 11:07:51;;;;;;;60.08;17.92;;;;;;;18.62;83.48;100854.72;4943457;28;20044;-76
2022/11/06 11:10:31;;;;;;;108.97;20.75;;;;;;;18.56;83.29;100857.25;4990265;28;20402;-77
2022/11/06 11:12:59;;;;;;;84.72;18.75;;;;;;;18.55;83.43;100847.38;4997061;28;20053;-78
2022/11/06 11:15:27;;;;;;;102.85;21.70;;;;;;;18.47;83.51;100845.47;4987137;28;20122;-78
2022/11/06 11:18:10;;;;;;;112.75;20.23;;;;;;;18.54;83.59;100859.28;4989291;28;20097;-76
2022/11/06 11:20:41;;;;;;;62.00;17.77;;;;;;;18.24;83.89;100807.19;4995839;28;20169;-77
2022/11/06 11:23:21;;;;;;;60.67;18.50;;;;;;;18.53;83.75;100854.88;5006802;28;20474;-77
2022/11/06 11:25:55;;;;;;;54.78;17.33;;;;;;;18.58;83.64;100858.78;5022317;28;20048;-75
2022/11/06 11:28:35;;;;;;;100.32;19.35;;;;;;;18.65;83.13;100864.41;5089671;28;20043;-76
2022/11/06 11:31:10;;;;;;;44.83;16.70;;;;;;;18.76;83.00;100866.78;5089210;28;20044;-76
2022/11/06 11:33:37;;;;;;;88.60;19.17;;;;;;;18.85;82.13;100860.28;5089283;28;20052;-77
2022/11/06 11:36:06;;;;;;;65.28;17.15;;;;;;;18.68;81.89;100866.78;5089075;28;20063;-76